CheckWX is a tool to help pilots better visualize weather data.  It is not intended as a substitute for an official pre-flight weather briefing.

09:05:31 UTC

PAGK TAF
Gulkana Airport
Gulkana, Alaska, USA
PAGK 180533Z 1806/1906 VRB03KT P6SM SCT120 FM181000 35005KT P6SM FEW050 OVC100 FM182000 34004KT P6SM FEW025 OVC050

Oct-18@
06:00 UTC

Oct-18 @ 06:00 UTC

Oct-18@
10:00 UTC

Oct-18 @ 10:00 UTC

PAGK 180533Z 1806/1906 VRB03KT P6SM SCT120
Wind
  • Variable at 3 KTS
Cloud Levels
  • Scattered at 12,000' AGL

Oct-18@
10:00 UTC

Oct-18 @ 10:00 UTC

Oct-18@
20:00 UTC

Oct-18 @ 20:00 UTC

FM181000 35005KT P6SM FEW050 OVC100

From

From Standard forecast or significant change

Wind
  • 350° at 5 KTS
Cloud Levels
  • Few at 5,000' AGL
  • Overcast at 10,000' AGL

Oct-18@
20:00 UTC

Oct-18 @ 20:00 UTC

Oct-19@
06:00 UTC

Oct-19 @ 06:00 UTC

FM182000 34004KT P6SM FEW025 OVC050

From

From Standard forecast or significant change

Wind
  • 340° at 4 KTS
Cloud Levels
  • Few at 2,500' AGL
  • Overcast at 5,000' AGL